Time;durP1;ratioP1;P1;durP2;ratioP2;P2;SDS_P1;SDS_P2;PMS_P1;PMS_P2;Temp;Humidity;BMP_temperature;BMP_pressure;BME280_temperature;BME280_humidity;BME280_pressure;Samples;Min_cycle;Max_cycle;Signal;HPM_P1;HPM_P2
2022/12/10 00:00:38;;;;;;;21.58;12.98;;;;;;;;;;6245563;28;20041;-72
2022/12/10 00:03:40;;;;;;;21.52;13.38;;;;;;;;;;6247777;28;20075;-71
2022/12/10 00:06:43;;;;;;;19.90;12.25;;;;;;;;;;6245495;28;20053;-73
2022/12/10 00:09:45;;;;;;;22.80;14.00;;;;;;;;;;6247282;28;20045;-72
2022/12/10 00:12:47;;;;;;;26.33;12.82;;;;;;;;;;6246552;28;20049;-72
2022/12/10 00:15:48;;;;;;;20.63;11.77;;;;;;;;;;6244988;28;20092;-70
2022/12/10 00:18:50;;;;;;;21.73;12.98;;;;;;;;;;6246256;28;20057;-71
2022/12/10 00:21:53;;;;;;;20.73;13.40;;;;;;;;;;6245899;28;20049;-71
2022/12/10 00:24:55;;;;;;;21.02;12.77;;;;;;;;;;6244044;28;20095;-71
2022/12/10 00:27:57;;;;;;;25.05;14.57;;;;;;;;;;6247544;28;20304;-71
2022/12/10 00:31:03;;;;;;;24.77;13.77;;;;;;;;;;6243930;28;20300;-70
2022/12/10 00:34:06;;;;;;;19.98;12.07;;;;;;;;;;6247477;28;20057;-71
2022/12/10 00:37:09;;;;;;;21.45;12.93;;;;;;;;;;6244071;28;20058;-71
2022/12/10 00:40:12;;;;;;;20.90;13.35;;;;;;;;;;6245853;28;20088;-71
2022/12/10 00:43:14;;;;;;;23.40;13.95;;;;;;;;;;6244322;28;20049;-71
2022/12/10 00:46:17;;;;;;;22.05;13.98;;;;;;;;;;6241771;28;20125;-72
2022/12/10 00:49:18;;;;;;;23.92;14.05;;;;;;;;;;6245583;28;20045;-71
2022/12/10 00:52:21;;;;;;;22.23;12.27;;;;;;;;;;6244185;28;20321;-72
2022/12/10 00:55:23;;;;;;;25.25;14.75;;;;;;;;;;6242819;28;20061;-70
2022/12/10 00:58:28;;;;;;;24.83;14.23;;;;;;;;;;6244554;28;20053;-71
2022/12/10 01:01:31;;;;;;;;;;;;;;;;;;6245294;28;20049;-73
2022/12/10 01:04:33;;;;;;;25.58;14.98;;;;;;;;;;6245017;28;19925;-73
2022/12/10 01:07:36;;;;;;;25.75;15.52;;;;;;;;;;6246419;28;20052;-73
2022/12/10 01:10:38;;;;;;;24.05;14.95;;;;;;;;;;6246205;28;20054;-73
2022/12/10 01:13:40;;;;;;;24.35;14.05;;;;;;;;;;6247878;28;20052;-73
2022/12/10 01:16:42;;;;;;;25.08;16.02;;;;;;;;;;6244169;28;20151;-73
2022/12/10 01:19:44;;;;;;;23.27;14.98;;;;;;;;;;6245002;28;20372;-73
2022/12/10 01:22:47;;;;;;;23.60;15.15;;;;;;;;;;6245954;28;20041;-73
2022/12/10 01:25:49;;;;;;;23.98;15.20;;;;;;;;;;6243587;28;20132;-74
2022/12/10 01:28:51;;;;;;;24.75;15.32;;;;;;;;;;6243115;28;20053;-71
2022/12/10 01:31:54;;;;;;;25.48;16.40;;;;;;;;;;6245874;28;20049;-72
2022/12/10 01:34:56;;;;;;;25.23;14.83;;;;;;;;;;6241975;28;20052;-72
2022/12/10 01:38:00;;;;;;;26.50;13.55;;;;;;;;;;6245023;28;20049;-73
2022/12/10 01:41:02;;;;;;;25.60;15.73;;;;;;;;;;6249440;28;20057;-73
2022/12/10 01:44:06;;;;;;;28.83;16.23;;;;;;;;;;6251337;28;20045;-73
2022/12/10 01:47:07;;;;;;;28.52;16.00;;;;;;;;;;6251379;28;20087;-73
2022/12/10 01:50:10;;;;;;;27.85;15.88;;;;;;;;;;6251318;28;20364;-72
2022/12/10 01:53:14;;;;;;;27.27;15.48;;;;;;;;;;6245801;28;20191;-73
2022/12/10 01:56:18;;;;;;;25.92;15.07;;;;;;;;;;6247852;28;20400;-72
2022/12/10 01:59:20;;;;;;;26.98;15.80;;;;;;;;;;6248124;28;20229;-73
2022/12/10 02:02:28;;;;;;;24.73;14.25;;;;;;;;;;6248682;28;20049;-73
2022/12/10 02:05:36;;;;;;;28.13;16.73;;;;;;;;;;6245802;28;20057;-73
2022/12/10 02:08:42;;;;;;;27.40;16.27;;;;;;;;;;6247714;28;20272;-73
2022/12/10 02:11:48;;;;;;;22.63;12.57;;;;;;;;;;6246381;28;20107;-73
2022/12/10 02:14:54;;;;;;;25.85;15.23;;;;;;;;;;6249944;28;20330;-73
2022/12/10 02:17:59;;;;;;;28.88;17.05;;;;;;;;;;6245953;28;20057;-72
2022/12/10 02:21:04;;;;;;;26.85;16.02;;;;;;;;;;6244960;28;20322;-73
2022/12/10 02:24:17;;;;;;;25.85;16.17;;;;;;;;;;6248512;28;20054;-72
2022/12/10 02:27:23;;;;;;;27.25;16.45;;;;;;;;;;6240005;28;20057;-72
2022/12/10 02:30:27;;;;;;;31.25;16.90;;;;;;;;;;6245009;28;20483;-71
2022/12/10 02:33:29;;;;;;;25.95;15.07;;;;;;;;;;6236351;28;20042;-71
2022/12/10 02:36:34;;;;;;;28.80;16.75;;;;;;;;;;6246544;28;20281;-73
2022/12/10 02:39:40;;;;;;;25.30;13.95;;;;;;;;;;6244497;28;20384;-74
2022/12/10 02:42:43;;;;;;;50.30;23.05;;;;;;;;;;6248742;28;20053;-73
2022/12/10 02:45:47;;;;;;;83.32;37.20;;;;;;;;;;6247328;28;20056;-74
2022/12/10 02:48:51;;;;;;;53.10;24.80;;;;;;;;;;6250598;28;20091;-73
2022/12/10 02:51:53;;;;;;;40.78;20.67;;;;;;;;;;6241401;28;20045;-74
2022/12/10 02:54:54;;;;;;;39.90;21.33;;;;;;;;;;6248458;28;20061;-73
2022/12/10 02:58:05;;;;;;;30.02;16.33;;;;;;;;;;6245673;28;20065;-74
2022/12/10 03:01:14;;;;;;;26.63;13.95;;;;;;;;;;6245919;28;20056;-73
2022/12/10 03:04:20;;;;;;;29.15;16.73;;;;;;;;;;6245237;28;20050;-72
2022/12/10 03:07:26;;;;;;;30.73;17.48;;;;;;;;;;6247969;28;20064;-73
2022/12/10 03:10:31;;;;;;;29.17;15.80;;;;;;;;;;6247860;28;20244;-73
2022/12/10 03:13:36;;;;;;;28.05;16.10;;;;;;;;;;6247068;28;20060;-73
2022/12/10 03:16:42;;;;;;;30.05;15.68;;;;;;;;;;6245874;28;20346;-73
2022/12/10 03:19:47;;;;;;;30.27;16.20;;;;;;;;;;6246584;28;20061;-73
2022/12/10 03:22:49;;;;;;;28.23;14.57;;;;;;;;;;6244131;28;20354;-72
2022/12/10 03:25:51;;;;;;;34.15;16.23;;;;;;;;;;6245499;28;20057;-73
2022/12/10 03:28:57;;;;;;;30.08;15.82;;;;;;;;;;6244430;28;20050;-73
2022/12/10 03:32:01;;;;;;;31.70;16.92;;;;;;;;;;6251147;28;20041;-73
2022/12/10 03:35:03;;;;;;;31.27;16.90;;;;;;;;;;6245462;28;20060;-73
2022/12/10 03:38:05;;;;;;;32.65;16.92;;;;;;;;;;6247364;28;20053;-74
2022/12/10 03:41:06;;;;;;;29.25;15.77;;;;;;;;;;6245393;28;20391;-73
2022/12/10 03:44:08;;;;;;;32.45;16.45;;;;;;;;;;6246291;28;20060;-73
2022/12/10 03:47:14;;;;;;;36.20;18.08;;;;;;;;;;6244770;28;20048;-73
2022/12/10 03:50:16;;;;;;;31.10;16.83;;;;;;;;;;6244305;28;20103;-73
2022/12/10 03:53:17;;;;;;;31.10;17.13;;;;;;;;;;6245232;28;20236;-73
2022/12/10 03:56:20;;;;;;;32.45;17.70;;;;;;;;;;6244565;28;20063;-72
2022/12/10 03:59:22;;;;;;;39.20;19.25;;;;;;;;;;6241948;28;20077;-73
2022/12/10 04:02:25;;;;;;;37.47;18.52;;;;;;;;;;6243409;28;20233;-72
2022/12/10 04:05:26;;;;;;;38.20;18.33;;;;;;;;;;6244609;28;20053;-72
2022/12/10 04:08:28;;;;;;;35.78;18.38;;;;;;;;;;6243673;28;20056;-73
2022/12/10 04:11:30;;;;;;;38.58;17.95;;;;;;;;;;6245408;28;20049;-72
2022/12/10 04:17:53;;;;;;;40.83;18.63;;;;;;;;;;6243991;28;20058;-72
2022/12/10 04:27:37;;;;;;;41.63;20.75;;;;;;;;;;6243810;28;20045;-73
2022/12/10 04:30:39;;;;;;;45.38;19.80;;;;;;;;;;6246053;28;20256;-72
2022/12/10 04:33:42;;;;;;;38.58;16.98;;;;;;;;;;6243112;28;20376;-73
2022/12/10 04:36:44;;;;;;;40.63;18.92;;;;;;;;;;6242827;28;20064;-73
2022/12/10 04:39:46;;;;;;;43.95;20.02;;;;;;;;;;6243111;28;20326;-73
2022/12/10 04:42:47;;;;;;;43.72;19.42;;;;;;;;;;6225593;28;20050;-73
2022/12/10 04:45:49;;;;;;;42.22;18.73;;;;;;;;;;6224378;28;20061;-71
2022/12/10 04:48:52;;;;;;;38.80;18.45;;;;;;;;;;6221149;28;20372;-70
2022/12/10 04:51:55;;;;;;;38.97;17.25;;;;;;;;;;6225140;28;20140;-72
2022/12/10 04:54:56;;;;;;;41.45;17.48;;;;;;;;;;6216090;28;20038;-73
2022/12/10 04:57:58;;;;;;;43.25;18.48;;;;;;;;;;6225474;28;20057;-71
2022/12/10 05:01:03;;;;;;;41.70;17.85;;;;;;;;;;6225052;28;20332;-73
2022/12/10 05:04:08;;;;;;;39.65;16.95;;;;;;;;;;6225329;28;20060;-73
2022/12/10 05:07:10;;;;;;;40.78;17.63;;;;;;;;;;6225720;28;20321;-73
2022/12/10 05:10:11;;;;;;;42.22;17.42;;;;;;;;;;6222366;28;20053;-72
2022/12/10 05:13:13;;;;;;;37.45;16.55;;;;;;;;;;6230592;28;20276;-73
2022/12/10 05:16:18;;;;;;;39.53;17.25;;;;;;;;;;6229278;28;20050;-72
2022/12/10 05:19:23;;;;;;;46.10;19.67;;;;;;;;;;6230061;28;20049;-72
2022/12/10 05:25:52;;;;;;;44.72;19.23;;;;;;;;;;6230160;28;20050;-73
2022/12/10 05:28:56;;;;;;;37.17;16.67;;;;;;;;;;6229848;28;20084;-73
2022/12/10 05:31:57;;;;;;;46.87;18.80;;;;;;;;;;6228086;28;20054;-73
2022/12/10 05:35:00;;;;;;;38.40;17.67;;;;;;;;;;6229195;28;20834;-73
2022/12/10 05:38:02;;;;;;;42.70;18.25;;;;;;;;;;6226913;28;20061;-73
2022/12/10 05:41:04;;;;;;;40.60;17.80;;;;;;;;;;6235277;28;20077;-72
2022/12/10 05:44:07;;;;;;;41.42;17.55;;;;;;;;;;6249339;28;20296;-73
2022/12/10 05:47:09;;;;;;;46.72;18.45;;;;;;;;;;6248757;28;20065;-72
2022/12/10 05:50:12;;;;;;;48.72;20.50;;;;;;;;;;6248245;28;20241;-72
2022/12/10 05:53:14;;;;;;;50.42;21.58;;;;;;;;;;6248848;28;20041;-73
2022/12/10 05:56:18;;;;;;;45.83;20.80;;;;;;;;;;6246562;28;20066;-73
2022/12/10 05:59:19;;;;;;;52.15;21.27;;;;;;;;;;6248485;28;20041;-72
2022/12/10 06:02:21;;;;;;;49.20;21.02;;;;;;;;;;6248466;28;20053;-73
2022/12/10 06:05:24;;;;;;;43.95;20.98;;;;;;;;;;6247418;28;20148;-71
2022/12/10 06:08:26;;;;;;;51.35;20.90;;;;;;;;;;6244637;28;20049;-71
2022/12/10 06:11:28;;;;;;;57.70;20.85;;;;;;;;;;6245526;28;20046;-74
2022/12/10 06:14:30;;;;;;;45.05;19.85;;;;;;;;;;6246013;28;20053;-73
2022/12/10 06:17:32;;;;;;;39.28;18.00;;;;;;;;;;6245717;28;20157;-73
2022/12/10 06:20:38;;;;;;;45.92;19.15;;;;;;;;;;6245162;28;20107;-73
2022/12/10 06:23:40;;;;;;;45.15;18.73;;;;;;;;;;6244123;28;20079;-71
2022/12/10 06:26:42;;;;;;;46.63;19.77;;;;;;;;;;6245003;28;20075;-71
2022/12/10 06:29:45;;;;;;;37.90;17.05;;;;;;;;;;6246053;28;20045;-71
2022/12/10 06:32:47;;;;;;;41.72;18.00;;;;;;;;;;6247652;28;20060;-71
2022/12/10 06:35:50;;;;;;;44.17;17.83;;;;;;;;;;6246867;28;20052;-72
2022/12/10 06:38:51;;;;;;;39.72;17.20;;;;;;;;;;6246255;28;20057;-70
2022/12/10 06:41:53;;;;;;;40.13;16.23;;;;;;;;;;6245443;28;20061;-72
2022/12/10 06:44:55;;;;;;;38.50;17.23;;;;;;;;;;6244370;28;20041;-72
2022/12/10 06:47:56;;;;;;;37.25;15.82;;;;;;;;;;6246514;28;20057;-72
2022/12/10 06:50:59;;;;;;;39.42;16.70;;;;;;;;;;6245514;28;21535;-72
2022/12/10 06:54:01;;;;;;;34.35;16.50;;;;;;;;;;6244358;28;20210;-71
2022/12/10 06:57:03;;;;;;;39.40;17.08;;;;;;;;;;6246007;28;20080;-72
2022/12/10 07:00:06;;;;;;;38.97;15.63;;;;;;;;;;6249058;28;20057;-72
2022/12/10 07:03:07;;;;;;;42.67;16.33;;;;;;;;;;6246041;28;20061;-71
2022/12/10 07:06:12;;;;;;;36.67;15.93;;;;;;;;;;6242593;28;20052;-72
2022/12/10 07:09:14;;;;;;;33.03;14.32;;;;;;;;;;6240824;28;20065;-72
2022/12/10 07:12:15;;;;;;;39.80;17.83;;;;;;;;;;6246393;28;20057;-72
2022/12/10 07:15:17;;;;;;;35.72;15.25;;;;;;;;;;6246682;28;20329;-72
2022/12/10 07:18:19;;;;;;;36.72;15.93;;;;;;;;;;6244968;28;20064;-72
2022/12/10 07:21:23;;;;;;;36.95;17.52;;;;;;;;;;6248293;28;20138;-72
2022/12/10 07:24:25;;;;;;;34.50;15.63;;;;;;;;;;6245996;28;20060;-72
2022/12/10 07:27:27;;;;;;;30.80;13.95;;;;;;;;;;6245143;28;20114;-72
2022/12/10 07:30:29;;;;;;;33.65;14.90;;;;;;;;;;6244029;28;20154;-72
2022/12/10 07:33:30;;;;;;;33.22;14.75;;;;;;;;;;6244630;28;20359;-72
2022/12/10 07:36:34;;;;;;;38.10;15.57;;;;;;;;;;6238506;28;20057;-71
2022/12/10 07:39:35;;;;;;;38.67;16.92;;;;;;;;;;6245425;28;20175;-72
2022/12/10 07:42:37;;;;;;;37.03;16.65;;;;;;;;;;6244961;28;20082;-72
2022/12/10 07:45:39;;;;;;;30.13;14.07;;;;;;;;;;6243136;28;20241;-71
2022/12/10 07:48:42;;;;;;;36.85;16.00;;;;;;;;;;6246220;28;20053;-72
2022/12/10 07:51:46;;;;;;;32.65;14.07;;;;;;;;;;6244803;28;20352;-70
2022/12/10 07:54:48;;;;;;;31.85;15.70;;;;;;;;;;6242918;28;20068;-72
2022/12/10 07:57:49;;;;;;;31.70;14.05;;;;;;;;;;6244265;28;20096;-72
2022/12/10 08:00:52;;;;;;;32.70;14.32;;;;;;;;;;6243630;28;20057;-71
2022/12/10 08:03:56;;;;;;;34.92;15.65;;;;;;;;;;6244415;28;20061;-72
2022/12/10 08:06:59;;;;;;;33.97;15.88;;;;;;;;;;6243385;28;20053;-72
2022/12/10 08:10:00;;;;;;;34.22;16.17;;;;;;;;;;6245632;28;21211;-72
2022/12/10 08:13:02;;;;;;;37.80;16.38;;;;;;;;;;6244089;28;20053;-72
2022/12/10 08:16:06;;;;;;;33.70;14.98;;;;;;;;;;6243415;28;20060;-72
2022/12/10 08:19:08;;;;;;;36.38;17.40;;;;;;;;;;6242844;28;20048;-72
2022/12/10 08:22:11;;;;;;;40.58;18.50;;;;;;;;;;6243458;28;20045;-71
2022/12/10 08:25:12;;;;;;;42.95;19.05;;;;;;;;;;6244709;28;20053;-72
2022/12/10 08:28:14;;;;;;;44.38;19.17;;;;;;;;;;6242616;28;20256;-71
2022/12/10 08:31:17;;;;;;;44.70;19.83;;;;;;;;;;6245766;28;20056;-70
2022/12/10 08:34:20;;;;;;;46.70;20.08;;;;;;;;;;6243295;28;20055;-71
2022/12/10 08:37:23;;;;;;;41.42;20.27;;;;;;;;;;6243001;28;20244;-70
2022/12/10 08:40:24;;;;;;;50.08;20.38;;;;;;;;;;6239659;28;20049;-71
2022/12/10 08:43:26;;;;;;;50.08;20.80;;;;;;;;;;6240793;28;20091;-71
2022/12/10 08:46:28;;;;;;;49.55;21.70;;;;;;;;;;6241531;28;20284;-70
2022/12/10 08:49:30;;;;;;;50.22;20.15;;;;;;;;;;6245027;28;20166;-72
2022/12/10 08:52:33;;;;;;;49.40;21.35;;;;;;;;;;6235186;28;20214;-70
2022/12/10 08:55:39;;;;;;;43.90;20.25;;;;;;;;;;6243193;28;20049;-69
2022/12/10 08:58:41;;;;;;;43.33;20.83;;;;;;;;;;6244017;28;20049;-69
2022/12/10 09:01:42;;;;;;;41.67;19.23;;;;;;;;;;6244772;28;20054;-70
2022/12/10 09:04:46;;;;;;;44.05;19.27;;;;;;;;;;6242963;28;20403;-69
2022/12/10 09:07:49;;;;;;;50.75;17.90;;;;;;;;;;6245629;28;20129;-71
2022/12/10 09:10:51;;;;;;;45.10;18.53;;;;;;;;;;6240975;28;20049;-69
2022/12/10 09:13:53;;;;;;;40.03;17.60;;;;;;;;;;6241800;28;20065;-70
2022/12/10 09:16:55;;;;;;;39.53;16.00;;;;;;;;;;6242607;28;20077;-70
2022/12/10 09:19:56;;;;;;;43.28;17.42;;;;;;;;;;6245253;28;20058;-68
2022/12/10 09:22:59;;;;;;;38.85;16.70;;;;;;;;;;6243395;28;20046;-71
2022/12/10 09:26:01;;;;;;;35.92;15.13;;;;;;;;;;6240989;28;20375;-70
2022/12/10 09:29:03;;;;;;;45.15;17.40;;;;;;;;;;6247384;28;20056;-70
2022/12/10 09:32:05;;;;;;;39.30;17.27;;;;;;;;;;6243530;28;20053;-68
2022/12/10 09:35:07;;;;;;;38.88;15.07;;;;;;;;;;6245890;28;20345;-70
2022/12/10 09:38:10;;;;;;;42.83;16.65;;;;;;;;;;6244494;28;20337;-70
2022/12/10 09:41:52;;;;;;;43.55;17.33;;;;;;;;;;6243886;28;20121;-69
2022/12/10 09:45:03;;;;;;;39.20;17.67;;;;;;;;;;6240325;28;20254;-69
2022/12/10 09:48:15;;;;;;;42.17;17.45;;;;;;;;;;6236804;28;20064;-68
2022/12/10 09:51:22;;;;;;;44.38;18.55;;;;;;;;;;6242714;28;20288;-69
2022/12/10 09:54:27;;;;;;;47.17;18.83;;;;;;;;;;6244036;28;20052;-70
2022/12/10 09:57:31;;;;;;;43.97;17.60;;;;;;;;;;6245266;28;20049;-70
2022/12/10 10:00:36;;;;;;;45.37;18.00;;;;;;;;;;6246341;28;20064;-69
2022/12/10 10:03:40;;;;;;;40.88;16.90;;;;;;;;;;6246253;28;20280;-70
2022/12/10 10:06:42;;;;;;;50.10;19.40;;;;;;;;;;6248536;28;20132;-69
2022/12/10 10:09:45;;;;;;;49.90;20.23;;;;;;;;;;6249144;28;20099;-70
2022/12/10 10:12:47;;;;;;;41.35;18.33;;;;;;;;;;6246880;28;20056;-70
2022/12/10 10:15:48;;;;;;;46.58;19.00;;;;;;;;;;6241492;28;20057;-69
2022/12/10 10:18:56;;;;;;;47.42;20.92;;;;;;;;;;6249396;28;20041;-69
2022/12/10 10:21:57;;;;;;;47.53;19.85;;;;;;;;;;6245506;28;20272;-69
2022/12/10 10:25:02;;;;;;;50.35;19.38;;;;;;;;;;6246702;28;20103;-70
2022/12/10 10:28:04;;;;;;;47.53;18.88;;;;;;;;;;6244947;28;20057;-70
2022/12/10 10:31:17;;;;;;;51.47;20.48;;;;;;;;;;6246896;28;20041;-71
2022/12/10 10:34:21;;;;;;;47.55;18.70;;;;;;;;;;6241939;28;20063;-70
2022/12/10 10:37:25;;;;;;;;;;;;;;;;;;6247549;28;20067;-71
2022/12/10 10:40:30;;;;;;;45.28;16.25;;;;;;;;;;6246723;28;19924;-70
2022/12/10 10:43:33;;;;;;;43.75;19.58;;;;;;;;;;6245803;28;20064;-70
2022/12/10 10:46:43;;;;;;;51.05;20.08;;;;;;;;;;6244839;28;20215;-70
2022/12/10 10:49:45;;;;;;;55.15;20.17;;;;;;;;;;6245874;28;20069;-70
2022/12/10 10:52:47;;;;;;;50.75;20.35;;;;;;;;;;6240945;28;20503;-70
2022/12/10 10:55:50;;;;;;;47.05;19.05;;;;;;;;;;6240437;28;20334;-70
2022/12/10 10:58:56;;;;;;;48.38;19.50;;;;;;;;;;6243250;28;20083;-69
2022/12/10 11:02:01;;;;;;;46.90;20.58;;;;;;;;;;6246456;28;20529;-71
2022/12/10 11:05:07;;;;;;;46.63;21.38;;;;;;;;;;6243442;28;20155;-70
2022/12/10 11:08:15;;;;;;;52.40;21.55;;;;;;;;;;6247048;28;20061;-70
2022/12/10 11:11:32;;;;;;;45.10;18.67;;;;;;;;;;6246408;28;20060;-69
2022/12/10 11:14:40;;;;;;;49.25;19.27;;;;;;;;;;6246656;28;20058;-70
2022/12/10 11:17:47;;;;;;;48.38;20.08;;;;;;;;;;6245307;28;20226;-70
2022/12/10 11:20:58;;;;;;;44.92;19.88;;;;;;;;;;6247668;28;20042;-70
2022/12/10 11:24:01;;;;;;;49.10;20.77;;;;;;;;;;6243958;28;20053;-71
2022/12/10 11:27:09;;;;;;;49.53;19.95;;;;;;;;;;6244148;28;20053;-70
2022/12/10 11:30:12;;;;;;;49.08;20.00;;;;;;;;;;6248141;28;20057;-70
2022/12/10 11:33:21;;;;;;;45.75;21.15;;;;;;;;;;6247342;28;20064;-71
2022/12/10 11:36:31;;;;;;;46.50;19.77;;;;;;;;;;6243549;28;20061;-70
2022/12/10 11:39:54;;;;;;;45.75;20.95;;;;;;;;;;6244138;28;20049;-70
2022/12/10 11:43:05;;;;;;;43.85;19.98;;;;;;;;;;6220575;28;20050;-71
2022/12/10 11:46:17;;;;;;;45.45;19.48;;;;;;;;;;6216503;28;20234;-70
2022/12/10 11:49:24;;;;;;;47.40;19.85;;;;;;;;;;6219018;28;20061;-68
2022/12/10 11:52:37;;;;;;;45.50;20.83;;;;;;;;;;6218639;28;20269;-71
2022/12/10 11:55:47;;;;;;;44.67;19.63;;;;;;;;;;6217947;28;20052;-69
2022/12/10 11:58:59;;;;;;;52.75;19.63;;;;;;;;;;6220677;28;20060;-69
2022/12/10 12:02:16;;;;;;;41.47;20.08;;;;;;;;;;6219745;28;20112;-70
2022/12/10 12:05:27;;;;;;;45.00;20.88;;;;;;;;;;6219846;28;20073;-69
2022/12/10 12:08:34;;;;;;;41.50;19.70;;;;;;;;;;6218773;28;20249;-72
2022/12/10 12:11:51;;;;;;;40.92;19.08;;;;;;;;;;6219676;28;20378;-72
2022/12/10 12:14:56;;;;;;;40.00;20.13;;;;;;;;;;6220094;28;20104;-71
2022/12/10 12:18:02;;;;;;;40.53;19.08;;;;;;;;;;6217202;28;20058;-70
2022/12/10 12:21:07;;;;;;;35.22;19.17;;;;;;;;;;6220518;28;20246;-71
2022/12/10 12:24:14;;;;;;;36.35;18.65;;;;;;;;;;6218693;28;20066;-71
2022/12/10 12:27:22;;;;;;;36.75;19.23;;;;;;;;;;6217928;28;20337;-76
2022/12/10 12:30:25;;;;;;;37.53;19.40;;;;;;;;;;6218601;28;21607;-73
2022/12/10 12:33:30;;;;;;;37.58;19.13;;;;;;;;;;6221413;28;20056;-73
2022/12/10 12:36:35;;;;;;;36.33;20.38;;;;;;;;;;6218962;28;20128;-71
2022/12/10 12:39:43;;;;;;;37.22;19.75;;;;;;;;;;6220048;28;20046;-73
2022/12/10 12:42:48;;;;;;;37.13;20.30;;;;;;;;;;6246657;28;20049;-72
2022/12/10 12:45:54;;;;;;;39.70;19.85;;;;;;;;;;6244615;28;20352;-72
2022/12/10 12:48:58;;;;;;;33.85;19.35;;;;;;;;;;6242166;28;20049;-69
2022/12/10 12:52:03;;;;;;;37.45;20.23;;;;;;;;;;6244929;28;20045;-70
2022/12/10 12:55:22;;;;;;;33.90;20.13;;;;;;;;;;6246757;28;20064;-71
2022/12/10 12:58:32;;;;;;;36.50;19.35;;;;;;;;;;6241944;28;20050;-69
2022/12/10 13:01:37;;;;;;;36.30;19.85;;;;;;;;;;6246013;28;20349;-71
2022/12/10 13:04:39;;;;;;;39.33;20.08;;;;;;;;;;6243947;28;20352;-71
2022/12/10 13:07:42;;;;;;;39.22;20.33;;;;;;;;;;6245994;28;20257;-72
2022/12/10 13:10:54;;;;;;;38.50;20.20;;;;;;;;;;6245118;28;20062;-72
2022/12/10 13:14:15;;;;;;;40.10;20.55;;;;;;;;;;6218632;28;20069;-72
2022/12/10 13:17:34;;;;;;;33.80;18.83;;;;;;;;;;6244158;28;20045;-72
2022/12/10 13:20:36;;;;;;;33.25;18.77;;;;;;;;;;6228388;28;20053;-72
2022/12/10 13:23:50;;;;;;;38.40;19.65;;;;;;;;;;6234362;28;20053;-71
2022/12/10 13:27:19;;;;;;;38.78;20.45;;;;;;;;;;6245859;28;20053;-72
2022/12/10 13:30:42;;;;;;;35.47;19.50;;;;;;;;;;6243924;28;20108;-73
2022/12/10 13:33:53;;;;;;;39.85;20.52;;;;;;;;;;6243321;28;20049;-72
2022/12/10 13:37:31;;;;;;;34.90;19.92;;;;;;;;;;6249041;28;20072;-72
2022/12/10 13:47:27;;;;;;;33.22;18.05;;;;;;;;;;6252301;28;20050;-72
2022/12/10 13:50:39;;;;;;;30.48;16.65;;;;;;;;;;6242429;28;20057;-73
2022/12/10 13:53:53;;;;;;;30.85;17.30;;;;;;;;;;6243621;28;20060;-72
2022/12/10 13:57:12;;;;;;;30.88;15.88;;;;;;;;;;6247433;28;20052;-71
2022/12/10 14:00:21;;;;;;;32.20;17.67;;;;;;;;;;6241218;28;20061;-73
2022/12/10 14:03:56;;;;;;;35.00;18.85;;;;;;;;;;6246023;28;20135;-71
2022/12/10 14:07:03;;;;;;;36.50;19.73;;;;;;;;;;6247060;28;20045;-73
2022/12/10 14:10:08;;;;;;;35.97;19.52;;;;;;;;;;6223411;28;20099;-71
2022/12/10 14:13:16;;;;;;;33.40;19.35;;;;;;;;;;6247106;28;20055;-70
2022/12/10 14:16:22;;;;;;;35.28;18.73;;;;;;;;;;6244622;28;20337;-71
2022/12/10 14:19:28;;;;;;;37.75;19.60;;;;;;;;;;6249011;28;20057;-70
2022/12/10 14:22:42;;;;;;;35.33;18.00;;;;;;;;;;6249263;28;20418;-71
2022/12/10 14:25:44;;;;;;;32.22;17.30;;;;;;;;;;6253020;28;20112;-71
2022/12/10 14:28:51;;;;;;;33.45;17.70;;;;;;;;;;6251319;28;20061;-71
2022/12/10 14:31:56;;;;;;;33.92;17.75;;;;;;;;;;6247037;28;20050;-72
2022/12/10 14:35:07;;;;;;;34.85;18.25;;;;;;;;;;6236685;28;20061;-71
2022/12/10 14:38:26;;;;;;;31.80;18.02;;;;;;;;;;6250457;28;20107;-71
2022/12/10 14:41:31;;;;;;;36.17;19.95;;;;;;;;;;6236312;28;20061;-72
2022/12/10 14:44:36;;;;;;;35.45;20.63;;;;;;;;;;6247464;28;20263;-72
2022/12/10 14:47:40;;;;;;;39.67;19.95;;;;;;;;;;6238555;28;20293;-71
2022/12/10 14:50:42;;;;;;;40.90;22.15;;;;;;;;;;6247702;28;20080;-71
2022/12/10 14:53:47;;;;;;;40.05;22.10;;;;;;;;;;6246951;28;20210;-71
2022/12/10 14:56:49;;;;;;;45.45;23.58;;;;;;;;;;6248360;28;20076;-71
2022/12/10 14:59:58;;;;;;;46.03;23.17;;;;;;;;;;6245942;28;20056;-71
2022/12/10 15:03:03;;;;;;;45.63;24.90;;;;;;;;;;6245677;28;20061;-70
2022/12/10 15:06:08;;;;;;;47.50;24.52;;;;;;;;;;6248289;28;20068;-71
2022/12/10 15:09:15;;;;;;;46.33;24.02;;;;;;;;;;6248457;28;20046;-71
2022/12/10 15:12:27;;;;;;;42.53;22.02;;;;;;;;;;6245833;28;20114;-71
2022/12/10 15:15:31;;;;;;;45.22;22.83;;;;;;;;;;6246516;28;20045;-71
2022/12/10 15:18:35;;;;;;;47.42;24.40;;;;;;;;;;6246813;28;20096;-71
2022/12/10 15:21:42;;;;;;;47.13;24.00;;;;;;;;;;6247683;28;20229;-71
2022/12/10 15:24:45;;;;;;;45.17;23.40;;;;;;;;;;6245259;28;20281;-71
2022/12/10 15:27:54;;;;;;;51.73;24.07;;;;;;;;;;6246394;28;20256;-71
2022/12/10 15:30:57;;;;;;;48.35;24.25;;;;;;;;;;6245936;28;20055;-71
2022/12/10 15:34:01;;;;;;;48.25;24.73;;;;;;;;;;6248581;28;20079;-71
2022/12/10 15:37:04;;;;;;;47.72;24.75;;;;;;;;;;6246870;28;20057;-71
2022/12/10 15:40:22;;;;;;;52.25;26.45;;;;;;;;;;6243189;28;20399;-71
2022/12/10 15:43:29;;;;;;;48.72;24.35;;;;;;;;;;6244883;28;20053;-71
2022/12/10 15:46:30;;;;;;;50.15;25.20;;;;;;;;;;6244461;28;20341;-71
2022/12/10 15:49:32;;;;;;;52.30;24.88;;;;;;;;;;6246342;28;20333;-71
2022/12/10 15:52:34;;;;;;;57.60;26.55;;;;;;;;;;6247935;28;20059;-71
2022/12/10 15:55:38;;;;;;;51.05;24.90;;;;;;;;;;6245710;28;20056;-71
2022/12/10 15:58:40;;;;;;;49.03;24.20;;;;;;;;;;6247113;28;20259;-71
2022/12/10 16:01:42;;;;;;;47.08;24.08;;;;;;;;;;6244836;28;20957;-71
2022/12/10 16:04:44;;;;;;;53.15;24.77;;;;;;;;;;6245142;28;20045;-71
2022/12/10 16:07:47;;;;;;;54.65;26.73;;;;;;;;;;6245148;28;20049;-71
2022/12/10 16:10:52;;;;;;;53.65;26.73;;;;;;;;;;6244086;28;20050;-71
2022/12/10 16:13:56;;;;;;;56.45;27.80;;;;;;;;;;6245961;28;20058;-71
2022/12/10 16:16:58;;;;;;;60.38;28.35;;;;;;;;;;6244537;28;20057;-71
2022/12/10 16:20:00;;;;;;;59.83;28.15;;;;;;;;;;6246148;28;20049;-71
2022/12/10 16:23:02;;;;;;;55.10;26.98;;;;;;;;;;6244628;28;20057;-71
2022/12/10 16:26:14;;;;;;;64.20;29.80;;;;;;;;;;6245745;28;20079;-70
2022/12/10 16:29:17;;;;;;;53.08;26.95;;;;;;;;;;6245622;28;20053;-70
2022/12/10 16:32:20;;;;;;;58.35;26.08;;;;;;;;;;6245446;28;20241;-71
2022/12/10 16:35:21;;;;;;;55.85;27.60;;;;;;;;;;6240873;28;20069;-70
2022/12/10 16:38:24;;;;;;;53.28;25.98;;;;;;;;;;6247954;28;20049;-69
2022/12/10 16:41:29;;;;;;;45.97;22.08;;;;;;;;;;6244550;28;20064;-70
2022/12/10 16:44:31;;;;;;;46.05;22.63;;;;;;;;;;6245983;28;20064;-70
2022/12/10 16:47:32;;;;;;;51.30;23.25;;;;;;;;;;6234881;28;20057;-70
2022/12/10 16:50:34;;;;;;;47.10;21.85;;;;;;;;;;6241705;28;20287;-70
2022/12/10 16:53:37;;;;;;;47.15;23.80;;;;;;;;;;6245528;28;20717;-70
2022/12/10 16:56:41;;;;;;;50.95;23.50;;;;;;;;;;6242466;28;20053;-70
2022/12/10 16:59:43;;;;;;;;;;;;;;;;;;6245699;28;20046;-70
2022/12/10 17:02:45;;;;;;;48.97;21.95;;;;;;;;;;6244225;28;19983;-69
2022/12/10 17:05:46;;;;;;;54.85;24.73;;;;;;;;;;6245819;28;20218;-70
2022/12/10 17:08:49;;;;;;;55.55;24.92;;;;;;;;;;6244133;28;20054;-70
2022/12/10 17:11:52;;;;;;;51.10;24.52;;;;;;;;;;6243742;28;21238;-69
2022/12/10 17:14:54;;;;;;;53.15;26.02;;;;;;;;;;6244856;28;20140;-70
2022/12/10 17:17:56;;;;;;;58.03;27.10;;;;;;;;;;6246312;28;20073;-69
2022/12/10 17:20:58;;;;;;;87.70;39.67;;;;;;;;;;6245188;28;20112;-71
2022/12/10 17:23:59;;;;;;;77.47;35.53;;;;;;;;;;6244898;28;20091;-70
2022/12/10 17:27:05;;;;;;;63.83;29.33;;;;;;;;;;6244237;28;20080;-70
2022/12/10 17:30:10;;;;;;;61.50;28.00;;;;;;;;;;6246103;28;20111;-71
2022/12/10 17:33:12;;;;;;;58.60;26.63;;;;;;;;;;6243360;28;20076;-70
2022/12/10 17:36:14;;;;;;;56.22;25.70;;;;;;;;;;6244609;28;20357;-70
2022/12/10 17:39:18;;;;;;;55.53;26.00;;;;;;;;;;6243673;28;20057;-70
2022/12/10 17:42:21;;;;;;;55.05;25.85;;;;;;;;;;6247718;28;20092;-70
2022/12/10 17:45:23;;;;;;;83.65;36.08;;;;;;;;;;6241920;28;20064;-71
2022/12/10 17:48:25;;;;;;;70.05;33.40;;;;;;;;;;6246257;28;20053;-71
2022/12/10 17:51:27;;;;;;;65.07;30.80;;;;;;;;;;6245400;28;20060;-72
2022/12/10 17:54:29;;;;;;;120.38;50.05;;;;;;;;;;6245177;28;20286;-71
2022/12/10 17:57:32;;;;;;;81.25;38.38;;;;;;;;;;6244583;28;20136;-71
2022/12/10 18:00:36;;;;;;;85.13;38.25;;;;;;;;;;6245310;28;20050;-71
2022/12/10 18:03:38;;;;;;;61.93;26.83;;;;;;;;;;6245917;28;20119;-70
2022/12/10 18:06:40;;;;;;;53.92;24.30;;;;;;;;;;6242928;28;20052;-70
2022/12/10 18:09:41;;;;;;;50.85;23.98;;;;;;;;;;6243529;28;20526;-69
2022/12/10 18:12:45;;;;;;;56.85;22.45;;;;;;;;;;6242464;28;20175;-70
2022/12/10 18:15:53;;;;;;;45.30;21.83;;;;;;;;;;6245418;28;20460;-70